createdAt,value
2022-08-07T00:00:30.467Z,8.20
2022-08-07T00:02:35.409Z,8.20
2022-08-07T00:02:44.321Z,7.80
2022-08-07T00:03:36.732Z,7.80
2022-08-07T00:04:30.444Z,9.70
2022-08-07T00:05:30.375Z,8.20
2022-08-07T00:06:33.355Z,8.40
2022-08-07T00:07:40.284Z,8.00
2022-08-07T00:08:30.346Z,8.30
2022-08-07T00:09:35.502Z,8.50
2022-08-07T00:10:31.419Z,9.50
2022-08-07T00:11:33.126Z,8.90
2022-08-07T00:12:30.285Z,7.60
2022-08-07T00:13:30.275Z,8.20
2022-08-07T00:14:30.941Z,8.50
2022-08-07T00:15:37.829Z,9.10
2022-08-07T00:16:31.183Z,10.40
2022-08-07T00:17:30.803Z,9.00
2022-08-07T00:18:30.321Z,9.20
2022-08-07T00:19:59.575Z,8.80
2022-08-07T00:20:34.479Z,7.80
2022-08-07T00:21:57.180Z,8.40
2022-08-07T00:22:35.398Z,8.20
2022-08-07T00:23:30.364Z,8.90
2022-08-07T00:24:31.726Z,7.70
2022-08-07T00:25:37.419Z,8.10
2022-08-07T00:26:49.349Z,7.70
2022-08-07T00:27:35.727Z,7.50
2022-08-07T00:28:33.461Z,8.40
2022-08-07T00:29:31.321Z,7.90
2022-08-07T00:30:30.110Z,8.10
2022-08-07T00:31:38.469Z,8.80
2022-08-07T00:32:30.107Z,8.40
2022-08-07T00:33:32.879Z,12.50
2022-08-07T00:34:30.083Z,9.00
2022-08-07T00:35:30.505Z,9.30
2022-08-07T00:36:30.020Z,9.00
2022-08-07T00:37:30.169Z,8.50
2022-08-07T00:38:31.058Z,8.70
2022-08-07T00:39:30.050Z,8.00
2022-08-07T00:40:39.982Z,10.50
2022-08-07T00:41:29.986Z,10.70
2022-08-07T00:42:29.962Z,10.80
2022-08-07T00:44:00.854Z,9.20
2022-08-07T00:44:29.956Z,9.80
2022-08-07T00:45:29.935Z,10.80
2022-08-07T00:46:29.974Z,9.00
2022-08-07T00:48:09.476Z,9.20
2022-08-07T00:48:31.751Z,9.20
2022-08-07T00:50:19.725Z,8.00
2022-08-07T00:50:51.148Z,9.70
2022-08-07T00:51:57.246Z,10.70
2022-08-07T00:52:29.912Z,8.40
2022-08-07T00:53:38.344Z,7.80
2022-08-07T00:54:29.839Z,8.70
2022-08-07T00:56:00.665Z,8.50
2022-08-07T00:56:33.985Z,8.60
2022-08-07T00:57:29.989Z,7.70
2022-08-07T00:58:29.838Z,10.40
2022-08-07T00:59:35.243Z,8.80
2022-08-07T01:00:29.767Z,10.20
2022-08-07T01:01:29.886Z,8.80
2022-08-07T01:02:29.995Z,10.40
2022-08-07T01:03:56.055Z,9.70
2022-08-07T01:04:30.295Z,9.40
2022-08-07T01:05:29.719Z,10.20
2022-08-07T01:06:29.715Z,10.60
2022-08-07T01:07:30.956Z,9.30
2022-08-07T01:08:29.661Z,14.00
2022-08-07T01:10:04.921Z,9.50
2022-08-07T01:10:29.716Z,11.00
2022-08-07T01:12:09.585Z,9.70
2022-08-07T01:12:34.139Z,8.40
2022-08-07T01:13:29.637Z,8.90
2022-08-07T01:14:30.099Z,8.60
2022-08-07T01:16:01.086Z,8.90
2022-08-07T01:16:29.933Z,9.00
2022-08-07T01:17:29.976Z,9.30
2022-08-07T01:18:29.580Z,8.80
2022-08-07T01:19:32.153Z,9.50
2022-08-07T01:20:30.782Z,10.80
2022-08-07T01:21:29.534Z,10.50
2022-08-07T01:22:29.732Z,11.00
2022-08-07T01:23:36.837Z,10.70
2022-08-07T01:24:30.718Z,10.20
2022-08-07T01:25:53.779Z,8.40
2022-08-07T01:26:31.245Z,9.00
2022-08-07T01:27:32.423Z,9.10
2022-08-07T01:28:29.513Z,8.30
2022-08-07T01:29:31.459Z,8.40
2022-08-07T01:30:29.425Z,8.00
2022-08-07T01:31:37.846Z,8.20
2022-08-07T01:32:29.409Z,8.80
2022-08-07T01:33:53.800Z,8.70
2022-08-07T01:34:31.091Z,9.70
2022-08-07T01:35:52.747Z,9.80
2022-08-07T01:36:33.875Z,10.80
2022-08-07T01:37:29.781Z,11.40
2022-08-07T01:38:29.420Z,10.70
2022-08-07T01:39:41.168Z,9.50
2022-08-07T01:40:29.342Z,10.90
2022-08-07T01:41:29.289Z,12.10
2022-08-07T01:42:38.917Z,9.20
2022-08-07T01:43:34.617Z,16.10
2022-08-07T01:44:29.262Z,16.40
2022-08-07T01:45:37.079Z,16.30
2022-08-07T01:46:29.285Z,17.60
2022-08-07T01:48:19.073Z,17.40
2022-08-07T01:48:30.389Z,18.10
2022-08-07T01:49:29.208Z,16.40
2022-08-07T01:50:29.365Z,17.40
2022-08-07T01:52:03.552Z,16.90
2022-08-07T01:52:29.215Z,18.00
2022-08-07T01:54:09.228Z,17.60
2022-08-07T01:54:36.429Z,16.90
2022-08-07T01:55:29.192Z,19.10
2022-08-07T01:56:29.256Z,18.30
2022-08-07T01:57:29.112Z,18.40
2022-08-07T01:58:33.148Z,17.50
2022-08-07T01:59:31.131Z,17.50
2022-08-07T02:00:29.219Z,19.60
2022-08-07T02:01:59.457Z,18.30
2022-08-07T02:02:32.793Z,17.40
2022-08-07T02:03:32.039Z,18.60
2022-08-07T02:04:30.349Z,18.30
2022-08-07T02:05:47.891Z,16.60
2022-08-07T02:06:31.281Z,18.00
2022-08-07T02:07:45.075Z,16.00
2022-08-07T02:08:28.995Z,17.00
2022-08-07T02:09:52.041Z,15.50
2022-08-07T02:10:29.025Z,15.50
2022-08-07T02:11:30.966Z,14.90
2022-08-07T02:12:29.269Z,13.90
2022-08-07T02:13:57.753Z,13.20
2022-08-07T02:14:40.452Z,13.80
2022-08-07T02:15:28.924Z,12.20
2022-08-07T02:16:33.292Z,15.80
2022-08-07T02:17:31.619Z,12.90
2022-08-07T02:18:29.928Z,12.00
2022-08-07T02:20:05.551Z,11.90
2022-08-07T02:20:28.865Z,12.70
2022-08-07T02:21:28.853Z,12.90
2022-08-07T02:22:28.871Z,11.50
2022-08-07T02:23:28.880Z,12.30
2022-08-07T02:24:29.451Z,12.20
2022-08-07T02:26:10.874Z,11.00
2022-08-07T02:26:36.895Z,11.00
2022-08-07T02:27:34.432Z,11.20
2022-08-07T02:28:29.118Z,9.90
2022-08-07T02:29:28.748Z,11.40
2022-08-07T02:30:28.766Z,10.90
2022-08-07T02:31:29.443Z,8.90
2022-08-07T02:32:30.221Z,9.90
2022-08-07T02:33:42.064Z,11.40
2022-08-07T02:34:28.771Z,11.50
2022-08-07T02:36:29.121Z,11.40
2022-08-07T02:36:36.736Z,10.60
2022-08-07T02:37:34.271Z,8.90
2022-08-07T02:38:31.755Z,9.20
2022-08-07T02:39:43.246Z,10.00
2022-08-07T02:40:31.017Z,9.10
2022-08-07T02:41:33.590Z,11.10
2022-08-07T02:42:28.618Z,8.90
2022-08-07T02:43:28.597Z,8.70
2022-08-07T02:44:34.624Z,9.20
2022-08-07T02:45:58.102Z,9.40
2022-08-07T02:46:28.843Z,9.50
2022-08-07T02:47:28.730Z,9.10
2022-08-07T02:48:28.927Z,10.70
2022-08-07T02:49:56.415Z,9.20
2022-08-07T02:50:30.919Z,10.40
2022-08-07T02:51:42.343Z,9.20
2022-08-07T02:52:31.244Z,9.60
2022-08-07T02:53:29.509Z,9.70
2022-08-07T02:54:29.729Z,10.20
2022-08-07T02:56:02.197Z,8.90
2022-08-07T02:56:28.631Z,10.90
2022-08-07T02:57:30.874Z,9.10
2022-08-07T02:58:29.033Z,11.10
2022-08-07T02:59:28.519Z,10.50
2022-08-07T03:00:30.155Z,10.10
2022-08-07T03:01:36.085Z,10.90
2022-08-07T03:02:28.406Z,9.40
2022-08-07T03:03:42.063Z,9.20
2022-08-07T03:04:28.461Z,11.80
2022-08-07T03:05:29.241Z,9.90
2022-08-07T03:06:34.681Z,9.60
2022-08-07T03:07:43.095Z,10.40
2022-08-07T03:08:29.412Z,10.80
2022-08-07T03:09:43.870Z,9.50
2022-08-07T03:10:28.533Z,10.70
2022-08-07T03:11:28.539Z,10.80
2022-08-07T03:12:31.061Z,9.70
2022-08-07T03:13:28.297Z,10.40
2022-08-07T03:14:28.532Z,9.90
2022-08-07T03:15:47.939Z,10.00
2022-08-07T03:16:28.525Z,9.30
2022-08-07T03:17:28.787Z,8.60
2022-08-07T03:18:34.468Z,9.30
2022-08-07T03:19:29.047Z,9.70
2022-08-07T03:20:28.492Z,9.30
2022-08-07T03:21:28.440Z,8.20
2022-08-07T03:22:30.190Z,8.90
2022-08-07T03:23:33.884Z,8.60
2022-08-07T03:24:28.314Z,8.30
2022-08-07T03:25:28.212Z,8.80
2022-08-07T03:26:28.228Z,8.30
2022-08-07T03:27:30.015Z,9.20
2022-08-07T03:28:37.508Z,8.80
2022-08-07T03:29:28.112Z,9.00
2022-08-07T03:30:28.151Z,8.70
2022-08-07T03:31:43.325Z,9.60
2022-08-07T03:32:28.316Z,9.50
2022-08-07T03:33:32.226Z,10.90
2022-08-07T03:34:28.256Z,8.70
2022-08-07T03:35:28.107Z,9.80
2022-08-07T03:36:28.035Z,10.30
2022-08-07T03:37:28.181Z,10.30
2022-08-07T03:38:29.852Z,8.30
2022-08-07T03:39:59.316Z,10.20
2022-08-07T03:40:30.789Z,10.90
2022-08-07T03:41:42.504Z,11.40
2022-08-07T03:42:28.047Z,11.10
2022-08-07T03:43:32.480Z,11.20
2022-08-07T03:44:34.570Z,11.40
2022-08-07T03:45:30.984Z,12.10
2022-08-07T03:46:28.745Z,11.60
2022-08-07T03:47:29.558Z,10.90
2022-08-07T03:48:27.968Z,11.20
2022-08-07T03:49:27.928Z,11.60
2022-08-07T03:50:28.694Z,12.00
2022-08-07T03:51:30.922Z,12.40
2022-08-07T03:52:27.896Z,12.50
2022-08-07T03:53:49.919Z,10.80
2022-08-07T03:54:54.801Z,12.20
2022-08-07T03:55:53.064Z,11.20
2022-08-07T03:56:33.392Z,11.60
2022-08-07T03:58:35.450Z,11.90
2022-08-07T03:59:13.316Z,11.80
2022-08-07T03:59:27.894Z,12.10
2022-08-07T04:00:30.707Z,12.10
2022-08-07T04:01:27.778Z,12.20
2022-08-07T04:02:27.714Z,12.10
2022-08-07T04:03:27.698Z,12.60
2022-08-07T04:04:28.541Z,13.80
2022-08-07T04:05:39.459Z,11.60
2022-08-07T04:06:37.661Z,13.50
2022-08-07T04:07:36.308Z,11.30
2022-08-07T04:08:27.673Z,11.90
2022-08-07T04:09:44.615Z,11.10
2022-08-07T04:10:27.691Z,12.10
2022-08-07T04:12:24.266Z,11.50
2022-08-07T04:12:35.269Z,11.40
2022-08-07T04:13:27.883Z,12.40
2022-08-07T04:14:37.851Z,11.40
2022-08-07T04:15:27.633Z,11.50
2022-08-07T04:16:30.352Z,11.60
2022-08-07T04:18:57.257Z,12.60
2022-08-07T04:19:12.757Z,12.70
2022-08-07T04:19:34.041Z,12.10
2022-08-07T04:20:27.667Z,11.90
2022-08-07T04:21:27.531Z,12.50
2022-08-07T04:22:29.504Z,12.70
2022-08-07T04:23:43.930Z,11.40
2022-08-07T04:24:33.772Z,11.30
2022-08-07T04:25:29.206Z,12.90
2022-08-07T04:26:28.493Z,14.50
2022-08-07T04:27:27.486Z,11.90
2022-08-07T04:28:27.613Z,12.50
2022-08-07T04:29:27.404Z,12.00
2022-08-07T04:30:43.675Z,12.10
2022-08-07T04:31:38.824Z,11.20
2022-08-07T04:32:34.899Z,13.20
2022-08-07T04:33:27.389Z,11.70
2022-08-07T04:34:33.355Z,12.10
2022-08-07T04:35:27.361Z,12.60
2022-08-07T04:36:27.365Z,10.90
2022-08-07T04:37:28.840Z,11.10
2022-08-07T04:38:27.317Z,10.30
2022-08-07T04:39:27.325Z,15.30
2022-08-07T04:40:31.489Z,11.10
2022-08-07T04:41:27.298Z,11.70
2022-08-07T04:42:28.887Z,11.80
2022-08-07T04:44:09.619Z,14.20
2022-08-07T04:44:27.250Z,12.30
2022-08-07T04:45:57.956Z,12.00
2022-08-07T04:46:34.482Z,12.60
2022-08-07T04:48:02.202Z,11.00
2022-08-07T04:48:27.256Z,13.40
2022-08-07T04:49:27.208Z,11.40
2022-08-07T04:50:27.181Z,11.00
2022-08-07T04:51:27.574Z,11.00
2022-08-07T04:52:27.578Z,12.20
2022-08-07T04:53:39.993Z,11.80
2022-08-07T04:54:30.258Z,11.80
2022-08-07T04:58:15.110Z,11.50
2022-08-07T04:59:01.611Z,11.10
2022-08-07T05:00:10.703Z,10.20
2022-08-07T05:00:30.173Z,12.00
2022-08-07T05:00:44.300Z,12.60
2022-08-07T05:01:44.361Z,12.60
2022-08-07T05:02:44.242Z,11.10
2022-08-07T05:04:06.742Z,10.20
2022-08-07T05:04:47.233Z,10.40
2022-08-07T05:05:52.983Z,10.20
2022-08-07T05:06:52.887Z,10.90
2022-08-07T05:07:48.604Z,9.70
2022-08-07T05:08:59.894Z,11.10
2022-08-07T05:09:46.457Z,11.60
2022-08-07T05:10:44.120Z,12.30
2022-08-07T05:11:57.056Z,10.80
2022-08-07T05:12:51.395Z,11.00
2022-08-07T05:14:53.900Z,9.90
2022-08-07T05:15:04.842Z,9.80
2022-08-07T05:15:44.050Z,9.70
2022-08-07T05:16:45.395Z,10.80
2022-08-07T05:17:51.671Z,11.20
2022-08-07T05:18:44.066Z,10.20
2022-08-07T05:19:45.340Z,10.90
2022-08-07T05:20:44.031Z,8.70
2022-08-07T05:21:59.499Z,10.10
2022-08-07T05:22:44.008Z,9.80
2022-08-07T05:23:44.032Z,8.50
2022-08-07T05:24:43.976Z,10.50
2022-08-07T05:26:11.551Z,10.30
2022-08-07T05:26:46.268Z,10.80
2022-08-07T05:28:02.743Z,10.00
2022-08-07T05:28:46.505Z,10.50
2022-08-07T05:30:54.522Z,8.60
2022-08-07T05:32:01.982Z,9.00
2022-08-07T05:32:55.507Z,8.40
2022-08-07T05:34:04.870Z,8.20
2022-08-07T05:34:55.502Z,8.50
2022-08-07T05:35:55.465Z,8.80
2022-08-07T05:36:55.456Z,7.90
2022-08-07T05:38:08.310Z,10.00
2022-08-07T05:39:00.109Z,8.00
2022-08-07T05:40:14.104Z,9.10
2022-08-07T05:40:55.755Z,7.40
2022-08-07T05:42:02.735Z,8.00
2022-08-07T05:42:56.254Z,9.50
2022-08-07T05:44:12.698Z,7.90
2022-08-07T05:45:14.500Z,8.90
2022-08-07T05:45:56.488Z,7.30
2022-08-07T05:46:55.343Z,7.20
2022-08-07T05:48:02.657Z,6.80
2022-08-07T05:48:58.626Z,7.50
2022-08-07T05:49:55.348Z,6.10
2022-08-07T05:50:55.369Z,5.60
2022-08-07T05:51:55.316Z,6.30
2022-08-07T05:52:55.363Z,5.80
2022-08-07T05:54:12.816Z,5.20
2022-08-07T05:54:55.960Z,6.10
2022-08-07T05:56:02.006Z,5.20
2022-08-07T05:56:55.234Z,5.60
2022-08-07T05:57:55.246Z,6.30
2022-08-07T05:58:55.279Z,6.90
2022-08-07T05:59:55.850Z,5.90
2022-08-07T06:00:55.373Z,5.60
2022-08-07T06:01:55.398Z,5.60
2022-08-07T06:02:55.155Z,6.90
2022-08-07T06:03:58.598Z,5.00
2022-08-07T06:04:55.214Z,4.90
2022-08-07T06:05:56.367Z,4.90
2022-08-07T06:06:56.441Z,5.60
2022-08-07T06:08:29.818Z,6.30
2022-08-07T06:08:55.094Z,4.40
2022-08-07T06:10:05.461Z,5.60
2022-08-07T06:10:55.140Z,4.80
2022-08-07T06:11:55.140Z,5.00
2022-08-07T06:12:55.079Z,4.80
2022-08-07T06:14:12.014Z,5.10
2022-08-07T06:14:55.047Z,5.80
2022-08-07T06:15:55.329Z,4.40
2022-08-07T06:16:55.891Z,5.00
2022-08-07T06:17:56.078Z,7.50
2022-08-07T06:18:55.726Z,5.40
2022-08-07T06:20:03.575Z,5.00
2022-08-07T06:22:16.875Z,5.20
2022-08-07T06:22:28.820Z,6.70
2022-08-07T06:23:02.347Z,6.90
2022-08-07T06:24:45.455Z,5.50
2022-08-07T06:25:01.105Z,5.10
2022-08-07T06:25:57.080Z,6.40
2022-08-07T06:26:54.892Z,5.60
2022-08-07T06:28:01.011Z,5.70
2022-08-07T06:28:54.871Z,5.50
2022-08-07T06:29:54.965Z,5.50
2022-08-07T06:30:55.012Z,6.30
2022-08-07T06:31:54.844Z,5.50
2022-08-07T06:32:54.894Z,6.40
2022-08-07T06:33:54.822Z,6.50
2022-08-07T06:34:54.803Z,5.90
2022-08-07T06:36:06.752Z,5.70
2022-08-07T06:36:55.078Z,6.60
2022-08-07T06:37:54.952Z,8.10
2022-08-07T06:38:59.198Z,5.70
2022-08-07T06:40:21.010Z,6.30
2022-08-07T06:40:54.952Z,5.70
2022-08-07T06:42:00.640Z,6.10
2022-08-07T06:42:54.834Z,5.70
2022-08-07T06:43:59.489Z,5.80
2022-08-07T06:44:54.726Z,7.00
2022-08-07T06:46:00.111Z,5.50
2022-08-07T06:47:10.095Z,5.60
2022-08-07T06:47:57.682Z,6.00
2022-08-07T06:48:54.700Z,5.80
2022-08-07T06:49:58.517Z,4.70
2022-08-07T06:50:54.850Z,5.30
2022-08-07T06:51:59.417Z,5.20
2022-08-07T06:52:55.764Z,6.20
2022-08-07T06:55:30.028Z,5.90
2022-08-07T06:56:01.643Z,5.90
2022-08-07T06:56:07.457Z,5.20
2022-08-07T06:57:01.031Z,5.90
2022-08-07T06:58:00.925Z,5.40
2022-08-07T07:00:12.663Z,6.10
2022-08-07T07:00:22.607Z,4.50
2022-08-07T07:01:00.932Z,5.10
2022-08-07T07:02:00.947Z,5.20
2022-08-07T07:03:10.902Z,4.60
2022-08-07T07:04:10.312Z,4.70
2022-08-07T07:05:01.134Z,4.60
2022-08-07T07:06:04.669Z,4.40
2022-08-07T07:07:01.984Z,6.70
2022-08-07T07:08:07.418Z,4.90
2022-08-07T07:09:01.226Z,5.50
2022-08-07T07:10:01.111Z,5.90
2022-08-07T07:11:01.141Z,4.60
2022-08-07T07:12:09.067Z,5.00
2022-08-07T07:13:01.043Z,6.40
2022-08-07T07:14:01.527Z,5.50
2022-08-07T07:15:00.758Z,5.00
2022-08-07T07:16:00.741Z,5.30
2022-08-07T07:17:00.701Z,5.90
2022-08-07T07:18:00.696Z,4.70
2022-08-07T07:19:00.719Z,4.40
2022-08-07T07:20:00.691Z,7.10
2022-08-07T07:21:00.659Z,5.60
2022-08-07T07:22:04.569Z,4.90
2022-08-07T07:24:08.641Z,6.10
2022-08-07T07:24:16.052Z,5.80
2022-08-07T07:25:02.818Z,6.90
2022-08-07T07:26:35.283Z,4.90
2022-08-07T07:27:00.623Z,7.90
2022-08-07T07:28:03.147Z,4.90
2022-08-07T07:29:39.792Z,6.10
2022-08-07T07:30:10.032Z,5.80
2022-08-07T07:31:00.564Z,6.40
2022-08-07T07:32:00.526Z,5.60
2022-08-07T07:33:00.532Z,6.90
2022-08-07T07:34:00.508Z,4.80
2022-08-07T07:35:00.512Z,7.60
2022-08-07T07:36:05.650Z,5.50
2022-08-07T07:37:05.279Z,4.60
2022-08-07T07:38:02.548Z,5.50
2022-08-07T07:39:00.532Z,5.10
2022-08-07T07:40:00.467Z,5.30
2022-08-07T07:41:02.384Z,4.70
2022-08-07T07:42:13.009Z,7.90
2022-08-07T07:43:14.995Z,6.70
2022-08-07T07:44:17.203Z,5.60
2022-08-07T07:45:00.408Z,5.00
2022-08-07T07:46:39.799Z,6.00
2022-08-07T07:47:14.139Z,5.70
2022-08-07T07:48:00.410Z,6.00
2022-08-07T07:50:29.432Z,5.10
2022-08-07T07:50:40.379Z,6.20
2022-08-07T07:51:00.313Z,5.50
2022-08-07T07:52:00.402Z,5.70
2022-08-07T07:53:00.801Z,7.10
2022-08-07T07:54:00.315Z,6.80
2022-08-07T07:55:00.283Z,6.60
2022-08-07T07:56:00.853Z,5.70
2022-08-07T07:57:00.261Z,6.60
2022-08-07T07:58:00.281Z,5.90
2022-08-07T07:59:00.274Z,5.70
2022-08-07T08:00:00.295Z,5.70
2022-08-07T08:01:00.236Z,4.60
2022-08-07T08:02:03.374Z,5.20
2022-08-07T08:03:04.768Z,5.30
2022-08-07T08:04:10.201Z,7.00
2022-08-07T08:05:00.167Z,4.80
2022-08-07T08:06:00.519Z,7.30
2022-08-07T08:07:00.707Z,5.40
2022-08-07T08:08:01.302Z,5.00
2022-08-07T08:09:00.337Z,5.70
2022-08-07T08:10:05.257Z,5.70
2022-08-07T08:11:00.114Z,6.10
2022-08-07T08:12:03.868Z,7.40
2022-08-07T08:13:02.901Z,6.20
2022-08-07T08:14:00.114Z,7.20
2022-08-07T08:15:00.083Z,7.50
2022-08-07T08:16:00.658Z,6.10
2022-08-07T08:17:55.315Z,7.00
2022-08-07T08:18:17.570Z,5.40
2022-08-07T08:19:00.517Z,5.00
2022-08-07T08:20:22.122Z,5.40
2022-08-07T08:21:00.651Z,4.80
2022-08-07T08:22:03.119Z,5.90
2022-08-07T08:23:00.609Z,5.70
2022-08-07T08:24:00.002Z,4.70
2022-08-07T08:25:18.276Z,8.10
2022-08-07T08:26:04.745Z,5.00
2022-08-07T08:26:59.914Z,4.40
2022-08-07T08:28:01.929Z,5.30
2022-08-07T08:28:59.888Z,5.50
2022-08-07T08:29:59.980Z,4.80
2022-08-07T08:31:00.289Z,5.60
2022-08-07T08:32:17.806Z,5.20
2022-08-07T08:33:00.206Z,4.90
2022-08-07T08:34:00.238Z,5.10
2022-08-07T08:34:59.928Z,6.00
2022-08-07T08:35:59.939Z,6.00
2022-08-07T08:36:59.843Z,4.50
2022-08-07T08:38:04.824Z,6.80
2022-08-07T08:39:01.659Z,4.90
2022-08-07T08:39:59.809Z,6.20
2022-08-07T08:41:00.551Z,5.70
2022-08-07T08:41:59.805Z,4.80
2022-08-07T08:42:59.826Z,6.30
2022-08-07T08:43:59.784Z,5.40
2022-08-07T08:44:59.711Z,7.30
2022-08-07T08:46:00.628Z,4.90
2022-08-07T08:46:59.696Z,5.80
2022-08-07T08:47:59.715Z,5.60
2022-08-07T08:48:59.669Z,9.70
2022-08-07T08:50:04.510Z,4.60
2022-08-07T08:50:59.643Z,4.30
2022-08-07T08:52:12.616Z,5.30
2022-08-07T08:52:59.637Z,6.10
2022-08-07T08:53:59.961Z,5.70
2022-08-07T08:55:01.177Z,4.50
2022-08-07T08:55:59.708Z,3.90
2022-08-07T08:56:59.663Z,5.20
2022-08-07T08:57:59.654Z,5.10
2022-08-07T08:58:59.571Z,5.10
2022-08-07T09:00:00.115Z,4.20
2022-08-07T09:00:59.613Z,5.00
2022-08-07T09:01:59.937Z,5.30
2022-08-07T09:02:59.612Z,6.00
2022-08-07T09:03:59.516Z,5.10
2022-08-07T09:04:59.506Z,5.20
2022-08-07T09:05:59.541Z,6.10
2022-08-07T09:06:59.479Z,5.30
2022-08-07T09:07:59.460Z,4.90
2022-08-07T09:08:59.439Z,5.80
2022-08-07T09:09:59.448Z,4.90
2022-08-07T09:10:59.418Z,5.00
2022-08-07T09:12:20.016Z,5.00
2022-08-07T09:12:59.401Z,4.00
2022-08-07T09:13:59.458Z,5.10
2022-08-07T09:14:59.847Z,4.30
2022-08-07T09:16:25.762Z,4.70
2022-08-07T09:16:59.351Z,6.20
2022-08-07T09:18:09.986Z,4.20
2022-08-07T09:18:59.329Z,4.70
2022-08-07T09:19:59.363Z,5.00
2022-08-07T09:21:00.793Z,5.00
2022-08-07T09:22:22.647Z,5.20
2022-08-07T09:24:55.578Z,5.60
2022-08-07T09:25:11.816Z,4.90
2022-08-07T09:25:54.362Z,4.90
2022-08-07T09:26:50.981Z,5.30
2022-08-07T09:28:00.757Z,5.10
2022-08-07T09:30:00.712Z,4.60
2022-08-07T09:30:12.446Z,4.90
2022-08-07T09:30:52.895Z,6.60
2022-08-07T09:31:49.587Z,5.20
2022-08-07T09:32:48.723Z,4.00
2022-08-07T09:33:57.563Z,4.90
2022-08-07T09:34:53.781Z,5.70
2022-08-07T09:36:04.587Z,5.20
2022-08-07T09:36:49.872Z,5.30
2022-08-07T09:37:54.010Z,5.20
2022-08-07T09:38:50.283Z,4.70
2022-08-07T09:39:54.794Z,5.90
2022-08-07T09:40:48.873Z,7.00
2022-08-07T09:41:58.399Z,6.00
2022-08-07T09:42:50.361Z,5.60
2022-08-07T09:44:06.265Z,5.90
2022-08-07T09:47:23.901Z,7.50
2022-08-07T09:48:01.690Z,5.10
2022-08-07T09:48:11.795Z,5.60
2022-08-07T09:50:04.001Z,5.90
2022-08-07T09:50:26.567Z,8.10
2022-08-07T09:51:14.742Z,5.30
2022-08-07T09:52:33.732Z,6.40
2022-08-07T09:53:07.476Z,6.60
2022-08-07T09:54:07.391Z,6.30
2022-08-07T09:55:17.076Z,6.60
2022-08-07T09:56:07.398Z,6.10
2022-08-07T09:57:07.362Z,6.20
2022-08-07T09:58:07.349Z,7.40
2022-08-07T09:59:13.714Z,7.30
2022-08-07T10:00:07.336Z,6.90
2022-08-07T10:01:08.432Z,4.80
2022-08-07T10:02:09.051Z,6.40
2022-08-07T10:03:08.364Z,5.80
2022-08-07T10:04:14.146Z,8.40
2022-08-07T10:05:12.632Z,9.30
2022-08-07T10:06:11.883Z,6.50
2022-08-07T10:07:24.194Z,9.50
2022-08-07T10:08:07.270Z,6.50
2022-08-07T10:09:08.025Z,6.60
2022-08-07T10:10:12.099Z,5.90
2022-08-07T10:11:17.135Z,7.60
2022-08-07T10:12:16.801Z,6.50
2022-08-07T10:13:11.007Z,4.50
2022-08-07T10:14:07.215Z,6.70
2022-08-07T10:15:07.181Z,5.30
2022-08-07T10:16:07.202Z,6.30
2022-08-07T10:17:14.264Z,5.60
2022-08-07T10:18:07.136Z,5.70
2022-08-07T10:19:11.127Z,6.20
2022-08-07T10:20:07.102Z,7.30
2022-08-07T10:21:19.483Z,5.30
2022-08-07T10:22:15.384Z,7.00
2022-08-07T10:23:07.782Z,6.50
2022-08-07T10:24:08.624Z,7.60
2022-08-07T10:25:07.922Z,7.60
2022-08-07T10:26:07.035Z,5.40
2022-08-07T10:27:10.467Z,7.50
2022-08-07T10:28:07.043Z,7.10
2022-08-07T10:29:07.012Z,7.20
2022-08-07T10:30:07.006Z,7.60
2022-08-07T10:31:11.237Z,7.40
2022-08-07T10:32:06.966Z,6.70
2022-08-07T10:33:06.954Z,4.40
2022-08-07T10:34:17.817Z,5.60
2022-08-07T10:35:09.062Z,9.00
2022-08-07T10:36:11.329Z,7.00
2022-08-07T10:37:12.569Z,6.60
2022-08-07T10:38:21.769Z,6.70
2022-08-07T10:39:06.943Z,5.30
2022-08-07T10:40:09.102Z,8.70
2022-08-07T10:41:06.865Z,8.60
2022-08-07T10:42:09.919Z,5.10
2022-08-07T10:43:06.851Z,6.00
2022-08-07T10:44:07.844Z,6.20
2022-08-07T10:45:06.837Z,7.10
2022-08-07T10:46:06.863Z,6.70
2022-08-07T10:47:11.519Z,6.20
2022-08-07T10:48:07.294Z,7.40
2022-08-07T10:49:06.775Z,6.10
2022-08-07T10:50:06.757Z,6.10
2022-08-07T10:51:06.740Z,4.40
2022-08-07T10:52:13.302Z,9.30
2022-08-07T10:53:08.034Z,6.10
2022-08-07T10:54:06.719Z,6.60
2022-08-07T10:55:20.939Z,6.90
2022-08-07T10:56:06.690Z,6.00
2022-08-07T10:57:06.699Z,6.50
2022-08-07T10:58:06.715Z,6.60
2022-08-07T10:59:06.669Z,6.40
2022-08-07T11:00:06.660Z,6.70
2022-08-07T11:01:11.549Z,7.60
2022-08-07T11:02:12.577Z,5.30
2022-08-07T11:03:10.965Z,7.10
2022-08-07T11:04:23.314Z,4.60
2022-08-07T11:05:10.545Z,5.90
2022-08-07T11:06:06.573Z,5.50
2022-08-07T11:07:15.082Z,6.80
2022-08-07T11:08:06.773Z,5.10
2022-08-07T11:09:06.796Z,6.70
2022-08-07T11:10:10.388Z,8.70
2022-08-07T11:11:06.530Z,6.00
2022-08-07T11:12:06.516Z,7.80
2022-08-07T11:13:06.505Z,8.50
2022-08-07T11:14:44.915Z,5.40
2022-08-07T11:15:09.505Z,8.20
2022-08-07T11:16:07.313Z,7.90
2022-08-07T11:17:07.259Z,6.80
2022-08-07T11:18:06.448Z,7.10
2022-08-07T11:19:06.933Z,6.50
2022-08-07T11:20:06.415Z,5.10
2022-08-07T11:21:06.412Z,8.10
2022-08-07T11:22:07.094Z,5.10
2022-08-07T11:23:07.221Z,6.70
2022-08-07T11:24:06.416Z,7.20
2022-08-07T11:25:06.729Z,6.00
2022-08-07T11:26:07.051Z,4.70
2022-08-07T11:27:06.838Z,6.70
2022-08-07T11:28:07.441Z,7.50
2022-08-07T11:29:13.045Z,5.60
2022-08-07T11:30:17.917Z,5.20
2022-08-07T11:31:08.844Z,6.60
2022-08-07T11:32:06.722Z,5.60
2022-08-07T11:33:07.966Z,6.10
2022-08-07T11:34:06.879Z,6.50
2022-08-07T11:35:06.717Z,8.80
2022-08-07T11:36:10.017Z,6.70
2022-08-07T11:37:06.864Z,5.90
2022-08-07T11:38:10.071Z,6.40
2022-08-07T11:39:07.037Z,5.90
2022-08-07T11:40:06.878Z,6.10
2022-08-07T11:41:06.518Z,6.00
2022-08-07T11:42:06.658Z,10.90
2022-08-07T11:43:06.555Z,7.90
2022-08-07T11:44:11.911Z,4.60
2022-08-07T11:45:06.658Z,6.00
2022-08-07T11:46:06.688Z,6.10
2022-08-07T11:47:06.976Z,7.40
2022-08-07T11:48:17.954Z,6.40
2022-08-07T11:49:50.855Z,7.40
2022-08-07T11:50:34.320Z,4.90
2022-08-07T11:51:09.089Z,9.00
2022-08-07T11:52:07.174Z,5.90
2022-08-07T11:53:06.556Z,5.20
2022-08-07T11:54:10.453Z,6.70
2022-08-07T11:55:12.909Z,5.50
2022-08-07T11:56:09.431Z,5.10
2022-08-07T11:57:06.545Z,8.70
2022-08-07T11:58:15.281Z,5.60
2022-08-07T11:59:06.231Z,5.90
2022-08-07T12:00:19.104Z,6.90
2022-08-07T12:01:06.822Z,4.70
2022-08-07T12:02:17.705Z,6.20
2022-08-07T12:03:06.504Z,6.90
2022-08-07T12:04:06.537Z,5.90
2022-08-07T12:05:09.152Z,7.00
2022-08-07T12:06:39.086Z,4.70
2022-08-07T12:07:08.989Z,5.50
2022-08-07T12:08:06.172Z,6.00
2022-08-07T12:09:07.453Z,5.00
2022-08-07T12:10:06.965Z,7.10
2022-08-07T12:11:20.512Z,7.50
2022-08-07T12:12:09.393Z,5.70
2022-08-07T12:13:11.679Z,4.80
2022-08-07T12:14:05.866Z,6.90
2022-08-07T12:15:08.101Z,7.10
2022-08-07T12:16:09.203Z,5.40
2022-08-07T12:17:05.768Z,7.80
2022-08-07T12:18:08.193Z,6.10
2022-08-07T12:19:05.756Z,8.00
2022-08-07T12:20:13.981Z,5.40
2022-08-07T12:21:05.738Z,9.60
2022-08-07T12:22:37.583Z,5.80
2022-08-07T12:23:08.968Z,6.20
2022-08-07T12:24:37.037Z,6.90
2022-08-07T12:25:07.693Z,3.90
2022-08-07T12:26:23.360Z,7.60
2022-08-07T12:27:13.218Z,6.80
2022-08-07T12:28:09.216Z,6.60
2022-08-07T12:29:11.681Z,5.40
2022-08-07T12:30:05.631Z,6.00
2022-08-07T12:31:05.627Z,5.80
2022-08-07T12:32:08.619Z,5.60
2022-08-07T12:33:18.822Z,5.60
2022-08-07T12:34:11.152Z,6.90
2022-08-07T12:35:07.293Z,8.10
2022-08-07T12:36:05.705Z,5.80
2022-08-07T12:37:08.250Z,6.50
2022-08-07T12:38:11.452Z,7.80
2022-08-07T12:39:09.468Z,3.70
2022-08-07T12:40:05.626Z,5.30
2022-08-07T12:41:05.549Z,7.00
2022-08-07T12:42:05.511Z,4.70
2022-08-07T12:43:09.946Z,5.30
2022-08-07T12:44:09.278Z,6.00
2022-08-07T12:45:06.443Z,7.30
2022-08-07T12:46:05.488Z,5.40
2022-08-07T12:47:06.279Z,4.50
2022-08-07T12:48:05.470Z,4.90
2022-08-07T12:49:09.735Z,4.80
2022-08-07T12:50:39.261Z,5.10
2022-08-07T12:51:13.252Z,5.40
2022-08-07T12:52:13.702Z,4.40
2022-08-07T12:53:18.203Z,4.00
2022-08-07T12:54:36.437Z,5.40
2022-08-07T12:55:09.449Z,4.60
2022-08-07T12:56:09.134Z,5.00
2022-08-07T12:57:09.996Z,6.20
2022-08-07T12:58:05.353Z,5.70
2022-08-07T12:59:08.286Z,3.90
2022-08-07T13:00:05.292Z,5.70
2022-08-07T13:01:05.386Z,4.20
2022-08-07T13:02:09.893Z,5.30
2022-08-07T13:03:07.060Z,3.90
2022-08-07T13:04:05.744Z,6.10
2022-08-07T13:05:10.362Z,4.60
2022-08-07T13:06:21.392Z,4.80
2022-08-07T13:07:05.227Z,4.10
2022-08-07T13:08:11.914Z,3.70
2022-08-07T13:10:10.082Z,6.40
2022-08-07T13:10:51.546Z,4.10
2022-08-07T13:11:05.185Z,6.30
2022-08-07T13:12:10.203Z,4.50
2022-08-07T13:13:05.156Z,3.20
2022-08-07T13:14:05.151Z,3.60
2022-08-07T13:15:05.144Z,4.90
2022-08-07T13:16:05.170Z,5.00